sensor_id;sensor_type;location;lat;lon;timestamp;temperature;humidity
71942;DHT22;59997;53.300;-6.260;2023-03-23T00:02:27;7.75;75.26
71942;DHT22;59997;53.300;-6.260;2023-03-23T00:04:53;7.92;74.82
71942;DHT22;59997;53.300;-6.260;2023-03-23T00:07:23;7.93;74.85
71942;DHT22;59997;53.300;-6.260;2023-03-23T00:09:53;8.03;74.74
71942;DHT22;59997;53.300;-6.260;2023-03-23T00:12:23;8.07;74.54
71942;DHT22;59997;53.300;-6.260;2023-03-23T00:14:57;8.11;74.71
71942;DHT22;59997;53.300;-6.260;2023-03-23T00:17:22;8.10;75.00
71942;DHT22;59997;53.300;-6.260;2023-03-23T00:19:49;8.06;75.44
71942;DHT22;59997;53.300;-6.260;2023-03-23T00:22:15;8.09;75.59
71942;DHT22;59997;53.300;-6.260;2023-03-23T00:24:42;8.10;75.43
71942;DHT22;59997;53.300;-6.260;2023-03-23T00:27:08;8.07;75.45
71942;DHT22;59997;53.300;-6.260;2023-03-23T00:29:34;7.99;75.56
71942;DHT22;59997;53.300;-6.260;2023-03-23T00:32:00;7.87;76.19
71942;DHT22;59997;53.300;-6.260;2023-03-23T00:34:27;7.79;76.62
71942;DHT22;59997;53.300;-6.260;2023-03-23T00:36:58;7.78;76.59
71942;DHT22;59997;53.300;-6.260;2023-03-23T00:39:27;7.90;76.44
71942;DHT22;59997;53.300;-6.260;2023-03-23T00:41:54;7.99;76.12
71942;DHT22;59997;53.300;-6.260;2023-03-23T00:44:30;8.03;75.75
71942;DHT22;59997;53.300;-6.260;2023-03-23T00:46:57;8.11;74.99
71942;DHT22;59997;53.300;-6.260;2023-03-23T00:49:24;8.14;75.18
71942;DHT22;59997;53.300;-6.260;2023-03-23T00:52:00;8.17;75.16
71942;DHT22;59997;53.300;-6.260;2023-03-23T00:54:26;8.13;75.59
71942;DHT22;59997;53.300;-6.260;2023-03-23T00:56:52;8.16;75.69
71942;DHT22;59997;53.300;-6.260;2023-03-23T00:59:18;8.14;76.13
71942;DHT22;59997;53.300;-6.260;2023-03-23T01:01:44;8.13;76.51
71942;DHT22;59997;53.300;-6.260;2023-03-23T01:04:10;8.13;76.68
71942;DHT22;59997;53.300;-6.260;2023-03-23T01:06:39;8.09;76.70
71942;DHT22;59997;53.300;-6.260;2023-03-23T01:09:14;8.11;76.78
71942;DHT22;59997;53.300;-6.260;2023-03-23T01:11:42;8.09;77.45
71942;DHT22;59997;53.300;-6.260;2023-03-23T01:14:10;7.92;78.84
71942;DHT22;59997;53.300;-6.260;2023-03-23T01:16:36;7.74;79.84
71942;DHT22;59997;53.300;-6.260;2023-03-23T01:19:02;7.64;80.35
71942;DHT22;59997;53.300;-6.260;2023-03-23T01:21:28;7.58;80.89
71942;DHT22;59997;53.300;-6.260;2023-03-23T01:23:53;7.51;80.99
71942;DHT22;59997;53.300;-6.260;2023-03-23T01:26:22;7.44;81.17
71942;DHT22;59997;53.300;-6.260;2023-03-23T01:28:48;7.33;81.07
71942;DHT22;59997;53.300;-6.260;2023-03-23T01:31:20;7.15;81.95
71942;DHT22;59997;53.300;-6.260;2023-03-23T01:33:46;6.98;82.19
71942;DHT22;59997;53.300;-6.260;2023-03-23T01:36:17;6.80;82.52
71942;DHT22;59997;53.300;-6.260;2023-03-23T01:38:44;6.60;82.93
71942;DHT22;59997;53.300;-6.260;2023-03-23T01:41:10;6.48;83.40
71942;DHT22;59997;53.300;-6.260;2023-03-23T01:43:52;6.39;84.02
71942;DHT22;59997;53.300;-6.260;2023-03-23T01:46:18;6.32;84.35
71942;DHT22;59997;53.300;-6.260;2023-03-23T01:48:43;6.29;84.62
71942;DHT22;59997;53.300;-6.260;2023-03-23T01:51:14;6.29;84.85
71942;DHT22;59997;53.300;-6.260;2023-03-23T01:53:56;6.30;84.95
71942;DHT22;59997;53.300;-6.260;2023-03-23T01:56:24;6.39;85.25
71942;DHT22;59997;53.300;-6.260;2023-03-23T01:58:52;6.36;85.36
71942;DHT22;59997;53.300;-6.260;2023-03-23T02:01:19;6.36;85.45
71942;DHT22;59997;53.300;-6.260;2023-03-23T02:03:47;6.34;85.51
71942;DHT22;59997;53.300;-6.260;2023-03-23T02:06:14;6.36;85.91
71942;DHT22;59997;53.300;-6.260;2023-03-23T02:08:41;6.33;86.04
71942;DHT22;59997;53.300;-6.260;2023-03-23T02:11:20;6.39;86.11
71942;DHT22;59997;53.300;-6.260;2023-03-23T02:13:46;6.40;86.18
71942;DHT22;59997;53.300;-6.260;2023-03-23T02:16:30;6.37;86.11
71942;DHT22;59997;53.300;-6.260;2023-03-23T02:19:06;6.37;86.21
71942;DHT22;59997;53.300;-6.260;2023-03-23T02:35:38;6.53;85.69
71942;DHT22;59997;53.300;-6.260;2023-03-23T02:38:10;6.64;85.58
71942;DHT22;59997;53.300;-6.260;2023-03-23T02:40:47;6.64;85.50
71942;DHT22;59997;53.300;-6.260;2023-03-23T02:43:16;6.61;85.61
71942;DHT22;59997;53.300;-6.260;2023-03-23T02:45:44;6.78;85.49
71942;DHT22;59997;53.300;-6.260;2023-03-23T02:48:13;6.81;85.31
71942;DHT22;59997;53.300;-6.260;2023-03-23T02:50:46;6.77;85.43
71942;DHT22;59997;53.300;-6.260;2023-03-23T02:53:16;6.77;85.62
71942;DHT22;59997;53.300;-6.260;2023-03-23T02:55:44;6.80;85.55
71942;DHT22;59997;53.300;-6.260;2023-03-23T02:58:11;6.88;85.21
71942;DHT22;59997;53.300;-6.260;2023-03-23T03:00:37;6.99;85.10
71942;DHT22;59997;53.300;-6.260;2023-03-23T03:03:04;7.10;84.80
71942;DHT22;59997;53.300;-6.260;2023-03-23T03:11:04;7.27;84.59
71942;DHT22;59997;53.300;-6.260;2023-03-23T03:13:51;7.28;84.54
71942;DHT22;59997;53.300;-6.260;2023-03-23T03:19:13;7.19;84.95
71942;DHT22;59997;53.300;-6.260;2023-03-23T03:21:45;7.15;85.01
71942;DHT22;59997;53.300;-6.260;2023-03-23T03:24:15;7.16;85.21
71942;DHT22;59997;53.300;-6.260;2023-03-23T03:26:45;7.02;85.78
71942;DHT22;59997;53.300;-6.260;2023-03-23T03:29:24;6.99;85.83
71942;DHT22;59997;53.300;-6.260;2023-03-23T03:31:52;6.91;85.75
71942;DHT22;59997;53.300;-6.260;2023-03-23T03:34:21;6.84;85.80
71942;DHT22;59997;53.300;-6.260;2023-03-23T03:36:47;6.74;85.90
71942;DHT22;59997;53.300;-6.260;2023-03-23T03:39:16;6.70;85.38
71942;DHT22;59997;53.300;-6.260;2023-03-23T03:41:43;6.67;85.14
71942;DHT22;59997;53.300;-6.260;2023-03-23T03:44:09;6.58;85.58
71942;DHT22;59997;53.300;-6.260;2023-03-23T03:46:35;6.54;85.54
71942;DHT22;59997;53.300;-6.260;2023-03-23T03:49:03;6.51;85.64
71942;DHT22;59997;53.300;-6.260;2023-03-23T03:51:29;6.44;85.57
71942;DHT22;59997;53.300;-6.260;2023-03-23T03:53:55;6.29;85.89
71942;DHT22;59997;53.300;-6.260;2023-03-23T03:56:22;6.26;85.86
71942;DHT22;59997;53.300;-6.260;2023-03-23T03:58:49;6.30;85.64
71942;DHT22;59997;53.300;-6.260;2023-03-23T04:01:16;6.47;84.79
71942;DHT22;59997;53.300;-6.260;2023-03-23T04:03:43;6.53;84.75
71942;DHT22;59997;53.300;-6.260;2023-03-23T04:06:09;6.48;84.79
71942;DHT22;59997;53.300;-6.260;2023-03-23T04:08:36;6.60;84.37
71942;DHT22;59997;53.300;-6.260;2023-03-23T04:11:03;6.40;84.91
71942;DHT22;59997;53.300;-6.260;2023-03-23T04:13:29;6.47;84.82
71942;DHT22;59997;53.300;-6.260;2023-03-23T04:15:55;6.55;84.83
71942;DHT22;59997;53.300;-6.260;2023-03-23T04:18:20;6.55;85.03
71942;DHT22;59997;53.300;-6.260;2023-03-23T04:20:48;6.64;84.83
71942;DHT22;59997;53.300;-6.260;2023-03-23T04:23:18;6.65;84.93
71942;DHT22;59997;53.300;-6.260;2023-03-23T04:25:49;6.80;84.58
71942;DHT22;59997;53.300;-6.260;2023-03-23T04:28:16;6.98;84.19
71942;DHT22;59997;53.300;-6.260;2023-03-23T04:30:49;6.89;84.19
71942;DHT22;59997;53.300;-6.260;2023-03-23T04:33:19;7.03;83.98
71942;DHT22;59997;53.300;-6.260;2023-03-23T04:35:45;7.09;83.66
71942;DHT22;59997;53.300;-6.260;2023-03-23T04:38:16;7.02;83.61
71942;DHT22;59997;53.300;-6.260;2023-03-23T04:40:46;7.09;83.40
71942;DHT22;59997;53.300;-6.260;2023-03-23T04:43:12;7.07;83.79
71942;DHT22;59997;53.300;-6.260;2023-03-23T04:45:40;7.15;83.74
71942;DHT22;59997;53.300;-6.260;2023-03-23T04:48:10;7.13;83.59
71942;DHT22;59997;53.300;-6.260;2023-03-23T04:50:36;7.15;83.56
71942;DHT22;59997;53.300;-6.260;2023-03-23T04:53:03;7.24;83.21
71942;DHT22;59997;53.300;-6.260;2023-03-23T04:55:34;7.19;83.39
71942;DHT22;59997;53.300;-6.260;2023-03-23T04:58:06;7.23;83.31
71942;DHT22;59997;53.300;-6.260;2023-03-23T05:00:33;7.06;83.60
71942;DHT22;59997;53.300;-6.260;2023-03-23T05:02:59;7.02;83.64
71942;DHT22;59997;53.300;-6.260;2023-03-23T05:05:26;7.12;83.16
71942;DHT22;59997;53.300;-6.260;2023-03-23T05:07:54;7.10;83.15
71942;DHT22;59997;53.300;-6.260;2023-03-23T05:10:20;7.02;83.62
71942;DHT22;59997;53.300;-6.260;2023-03-23T05:12:45;6.99;83.45
71942;DHT22;59997;53.300;-6.260;2023-03-23T05:15:12;7.09;83.61
71942;DHT22;59997;53.300;-6.260;2023-03-23T05:17:39;7.02;83.50
71942;DHT22;59997;53.300;-6.260;2023-03-23T05:20:06;6.99;83.65
71942;DHT22;59997;53.300;-6.260;2023-03-23T05:22:37;6.98;83.41
71942;DHT22;59997;53.300;-6.260;2023-03-23T05:25:04;6.91;83.49
71942;DHT22;59997;53.300;-6.260;2023-03-23T05:27:30;6.92;83.68
71942;DHT22;59997;53.300;-6.260;2023-03-23T05:29:57;6.99;83.24
71942;DHT22;59997;53.300;-6.260;2023-03-23T05:32:24;6.93;83.41
71942;DHT22;59997;53.300;-6.260;2023-03-23T05:35:01;6.93;83.80
71942;DHT22;59997;53.300;-6.260;2023-03-23T05:37:29;6.95;84.04
71942;DHT22;59997;53.300;-6.260;2023-03-23T05:39:58;6.99;84.08
71942;DHT22;59997;53.300;-6.260;2023-03-23T05:42:26;7.06;84.10
71942;DHT22;59997;53.300;-6.260;2023-03-23T05:44:52;7.06;83.99
71942;DHT22;59997;53.300;-6.260;2023-03-23T05:47:18;7.07;83.89
71942;DHT22;59997;53.300;-6.260;2023-03-23T05:49:44;7.06;83.86
71942;DHT22;59997;53.300;-6.260;2023-03-23T05:52:09;7.13;83.45
71942;DHT22;59997;53.300;-6.260;2023-03-23T05:54:35;7.06;83.51
71942;DHT22;59997;53.300;-6.260;2023-03-23T05:57:01;7.07;83.17
71942;DHT22;59997;53.300;-6.260;2023-03-23T05:59:27;7.19;82.51
71942;DHT22;59997;53.300;-6.260;2023-03-23T06:01:52;7.19;82.20
71942;DHT22;59997;53.300;-6.260;2023-03-23T06:04:19;7.17;81.91
71942;DHT22;59997;53.300;-6.260;2023-03-23T06:06:44;7.35;80.95
71942;DHT22;59997;53.300;-6.260;2023-03-23T06:09:10;7.46;80.62
71942;DHT22;59997;53.300;-6.260;2023-03-23T06:11:36;7.47;80.76
71942;DHT22;59997;53.300;-6.260;2023-03-23T06:14:03;7.34;81.15
71942;DHT22;59997;53.300;-6.260;2023-03-23T06:16:28;7.38;81.23
71942;DHT22;59997;53.300;-6.260;2023-03-23T06:18:54;7.34;81.69
71942;DHT22;59997;53.300;-6.260;2023-03-23T06:21:22;7.35;82.08
71942;DHT22;59997;53.300;-6.260;2023-03-23T06:23:48;7.38;82.25
71942;DHT22;59997;53.300;-6.260;2023-03-23T06:26:14;7.47;81.99
71942;DHT22;59997;53.300;-6.260;2023-03-23T06:28:42;7.50;82.13
71942;DHT22;59997;53.300;-6.260;2023-03-23T06:31:07;7.46;82.37
71942;DHT22;59997;53.300;-6.260;2023-03-23T06:33:36;7.40;82.56
71942;DHT22;59997;53.300;-6.260;2023-03-23T06:36:03;7.31;82.65
71942;DHT22;59997;53.300;-6.260;2023-03-23T06:38:30;7.40;82.19
71942;DHT22;59997;53.300;-6.260;2023-03-23T06:40:55;7.46;81.89
71942;DHT22;59997;53.300;-6.260;2023-03-23T06:43:22;7.40;81.96
71942;DHT22;59997;53.300;-6.260;2023-03-23T06:45:48;7.52;81.09
71942;DHT22;59997;53.300;-6.260;2023-03-23T06:48:14;7.52;80.92
71942;DHT22;59997;53.300;-6.260;2023-03-23T06:50:45;7.57;80.85
71942;DHT22;59997;53.300;-6.260;2023-03-23T06:53:11;7.52;81.07
71942;DHT22;59997;53.300;-6.260;2023-03-23T06:55:37;7.61;80.69
71942;DHT22;59997;53.300;-6.260;2023-03-23T06:58:04;7.62;80.47
71942;DHT22;59997;53.300;-6.260;2023-03-23T07:00:31;7.68;80.58
71942;DHT22;59997;53.300;-6.260;2023-03-23T07:02:56;7.59;80.89
71942;DHT22;59997;53.300;-6.260;2023-03-23T07:05:22;7.74;80.61
71942;DHT22;59997;53.300;-6.260;2023-03-23T07:07:48;7.69;81.04
71942;DHT22;59997;53.300;-6.260;2023-03-23T07:10:13;7.72;81.24
71942;DHT22;59997;53.300;-6.260;2023-03-23T07:12:39;7.75;81.43
71942;DHT22;59997;53.300;-6.260;2023-03-23T07:15:09;7.78;81.46
71942;DHT22;59997;53.300;-6.260;2023-03-23T07:17:37;7.87;81.43
71942;DHT22;59997;53.300;-6.260;2023-03-23T07:20:03;8.02;81.36
71942;DHT22;59997;53.300;-6.260;2023-03-23T07:22:29;8.17;80.84
71942;DHT22;59997;53.300;-6.260;2023-03-23T07:26:41;8.59;79.83
71942;DHT22;59997;53.300;-6.260;2023-03-23T07:29:08;8.61;79.62
71942;DHT22;59997;53.300;-6.260;2023-03-23T07:31:34;8.46;80.45
71942;DHT22;59997;53.300;-6.260;2023-03-23T07:34:00;8.45;80.18
71942;DHT22;59997;53.300;-6.260;2023-03-23T07:36:26;8.40;80.72
71942;DHT22;59997;53.300;-6.260;2023-03-23T07:38:52;8.49;80.44
71942;DHT22;59997;53.300;-6.260;2023-03-23T07:41:18;8.45;80.73
71942;DHT22;59997;53.300;-6.260;2023-03-23T07:43:44;8.52;80.23
71942;DHT22;59997;53.300;-6.260;2023-03-23T07:46:10;8.46;80.34
71942;DHT22;59997;53.300;-6.260;2023-03-23T07:48:36;8.27;80.63
71942;DHT22;59997;53.300;-6.260;2023-03-23T07:51:03;8.28;80.87
71942;DHT22;59997;53.300;-6.260;2023-03-23T07:53:29;8.42;80.60
71942;DHT22;59997;53.300;-6.260;2023-03-23T07:55:54;8.38;80.59
71942;DHT22;59997;53.300;-6.260;2023-03-23T07:58:20;8.46;80.45
71942;DHT22;59997;53.300;-6.260;2023-03-23T08:00:46;8.70;79.53
71942;DHT22;59997;53.300;-6.260;2023-03-23T08:03:14;8.97;78.78
71942;DHT22;59997;53.300;-6.260;2023-03-23T08:05:40;9.28;78.18
71942;DHT22;59997;53.300;-6.260;2023-03-23T08:08:08;9.46;78.20
71942;DHT22;59997;53.300;-6.260;2023-03-23T08:10:34;9.66;77.62
71942;DHT22;59997;53.300;-6.260;2023-03-23T08:13:01;9.91;76.83
71942;DHT22;59997;53.300;-6.260;2023-03-23T08:15:27;9.90;76.62
71942;DHT22;59997;53.300;-6.260;2023-03-23T08:17:53;9.79;77.22
71942;DHT22;59997;53.300;-6.260;2023-03-23T08:20:19;9.72;77.76
71942;DHT22;59997;53.300;-6.260;2023-03-23T08:22:50;9.72;77.03
71942;DHT22;59997;53.300;-6.260;2023-03-23T08:25:18;9.80;76.78
71942;DHT22;59997;53.300;-6.260;2023-03-23T08:27:44;9.94;76.14
71942;DHT22;59997;53.300;-6.260;2023-03-23T08:30:13;10.07;77.07
71942;DHT22;59997;53.300;-6.260;2023-03-23T08:32:39;10.08;76.10
71942;DHT22;59997;53.300;-6.260;2023-03-23T08:35:06;10.31;75.23
71942;DHT22;59997;53.300;-6.260;2023-03-23T08:37:32;10.55;74.99
71942;DHT22;59997;53.300;-6.260;2023-03-23T08:39:57;10.73;74.27
71942;DHT22;59997;53.300;-6.260;2023-03-23T08:42:24;10.59;74.28
71942;DHT22;59997;53.300;-6.260;2023-03-23T08:44:51;10.98;74.33
71942;DHT22;59997;53.300;-6.260;2023-03-23T08:47:17;11.28;74.26
71942;DHT22;59997;53.300;-6.260;2023-03-23T08:49:43;10.97;74.08
71942;DHT22;59997;53.300;-6.260;2023-03-23T08:52:10;10.66;74.30
71942;DHT22;59997;53.300;-6.260;2023-03-23T08:54:36;10.76;74.57
71942;DHT22;59997;53.300;-6.260;2023-03-23T08:57:02;11.69;72.98
71942;DHT22;59997;53.300;-6.260;2023-03-23T08:59:28;12.39;70.39
71942;DHT22;59997;53.300;-6.260;2023-03-23T09:01:54;12.61;69.51
71942;DHT22;59997;53.300;-6.260;2023-03-23T09:04:20;12.56;68.33
71942;DHT22;59997;53.300;-6.260;2023-03-23T09:06:46;12.92;67.83
71942;DHT22;59997;53.300;-6.260;2023-03-23T09:09:12;12.93;66.88
71942;DHT22;59997;53.300;-6.260;2023-03-23T09:11:38;13.09;67.24
71942;DHT22;59997;53.300;-6.260;2023-03-23T09:14:05;12.68;68.01
71942;DHT22;59997;53.300;-6.260;2023-03-23T09:16:31;12.77;67.98
71942;DHT22;59997;53.300;-6.260;2023-03-23T09:18:58;12.69;67.86
71942;DHT22;59997;53.300;-6.260;2023-03-23T09:21:25;12.82;67.38
71942;DHT22;59997;53.300;-6.260;2023-03-23T09:23:51;12.63;67.90
71942;DHT22;59997;53.300;-6.260;2023-03-23T09:26:17;12.92;67.17
71942;DHT22;59997;53.300;-6.260;2023-03-23T09:28:43;13.10;67.53
71942;DHT22;59997;53.300;-6.260;2023-03-23T09:31:09;12.88;67.75
71942;DHT22;59997;53.300;-6.260;2023-03-23T09:33:36;12.46;68.98
71942;DHT22;59997;53.300;-6.260;2023-03-23T09:36:02;11.64;70.55
71942;DHT22;59997;53.300;-6.260;2023-03-23T09:38:28;11.50;72.14
71942;DHT22;59997;53.300;-6.260;2023-03-23T09:41:13;12.71;69.05
71942;DHT22;59997;53.300;-6.260;2023-03-23T09:43:58;13.27;66.74
71942;DHT22;59997;53.300;-6.260;2023-03-23T09:46:49;13.32;66.10
71942;DHT22;59997;53.300;-6.260;2023-03-23T09:49:25;13.68;65.92
71942;DHT22;59997;53.300;-6.260;2023-03-23T09:52:14;13.64;64.85
71942;DHT22;59997;53.300;-6.260;2023-03-23T09:54:43;13.62;65.25
71942;DHT22;59997;53.300;-6.260;2023-03-23T09:57:22;14.06;64.05
71942;DHT22;59997;53.300;-6.260;2023-03-23T10:02:52;14.40;63.12
71942;DHT22;59997;53.300;-6.260;2023-03-23T10:07:49;14.47;61.59
71942;DHT22;59997;53.300;-6.260;2023-03-23T10:10:15;14.82;62.26
71942;DHT22;59997;53.300;-6.260;2023-03-23T10:12:50;14.69;61.95
71942;DHT22;59997;53.300;-6.260;2023-03-23T10:18:02;14.83;61.11
71942;DHT22;59997;53.300;-6.260;2023-03-23T10:20:47;14.69;60.66
71942;DHT22;59997;53.300;-6.260;2023-03-23T10:26:02;14.67;61.00
71942;DHT22;59997;53.300;-6.260;2023-03-23T10:28:37;15.03;60.96
71942;DHT22;59997;53.300;-6.260;2023-03-23T10:31:05;14.97;59.48
71942;DHT22;59997;53.300;-6.260;2023-03-23T10:33:44;14.78;62.17
71942;DHT22;59997;53.300;-6.260;2023-03-23T10:36:24;14.52;61.87
71942;DHT22;59997;53.300;-6.260;2023-03-23T10:39:13;14.97;61.38
71942;DHT22;59997;53.300;-6.260;2023-03-23T10:41:40;14.83;60.02
71942;DHT22;59997;53.300;-6.260;2023-03-23T10:44:21;14.97;60.99
71942;DHT22;59997;53.300;-6.260;2023-03-23T10:47:00;14.38;61.02
71942;DHT22;59997;53.300;-6.260;2023-03-23T10:49:28;14.45;60.91
71942;DHT22;59997;53.300;-6.260;2023-03-23T10:55:01;15.02;60.36
71942;DHT22;59997;53.300;-6.260;2023-03-23T10:57:32;14.90;60.35
71942;DHT22;59997;53.300;-6.260;2023-03-23T11:03:05;15.82;61.76
71942;DHT22;59997;53.300;-6.260;2023-03-23T11:05:41;15.72;57.80
71942;DHT22;59997;53.300;-6.260;2023-03-23T11:08:16;15.44;59.54
71942;DHT22;59997;53.300;-6.260;2023-03-23T11:10:55;15.62;61.87
71942;DHT22;59997;53.300;-6.260;2023-03-23T11:13:23;15.52;58.21
71942;DHT22;59997;53.300;-6.260;2023-03-23T11:15:53;15.52;58.70
71942;DHT22;59997;53.300;-6.260;2023-03-23T11:18:24;15.13;61.12
71942;DHT22;59997;53.300;-6.260;2023-03-23T11:20:59;14.61;60.36
71942;DHT22;59997;53.300;-6.260;2023-03-23T11:23:29;14.64;60.45
71942;DHT22;59997;53.300;-6.260;2023-03-23T11:26:28;15.31;59.90
71942;DHT22;59997;53.300;-6.260;2023-03-23T11:29:13;15.83;57.95
71942;DHT22;59997;53.300;-6.260;2023-03-23T11:31:41;16.07;55.55
71942;DHT22;59997;53.300;-6.260;2023-03-23T11:34:14;15.30;57.35
71942;DHT22;59997;53.300;-6.260;2023-03-23T11:36:43;15.40;58.47
71942;DHT22;59997;53.300;-6.260;2023-03-23T11:39:32;16.52;59.52
71942;DHT22;59997;53.300;-6.260;2023-03-23T11:42:00;16.56;56.68
71942;DHT22;59997;53.300;-6.260;2023-03-23T11:44:39;16.70;57.32
71942;DHT22;59997;53.300;-6.260;2023-03-23T11:50:10;15.61;57.15
71942;DHT22;59997;53.300;-6.260;2023-03-23T11:52:49;15.72;57.71
71942;DHT22;59997;53.300;-6.260;2023-03-23T11:55:22;15.79;58.63
71942;DHT22;59997;53.300;-6.260;2023-03-23T11:57:49;15.51;58.88
71942;DHT22;59997;53.300;-6.260;2023-03-23T12:00:20;15.49;59.22
71942;DHT22;59997;53.300;-6.260;2023-03-23T12:02:59;15.00;62.51
71942;DHT22;59997;53.300;-6.260;2023-03-23T12:18:50;15.83;62.08
71942;DHT22;59997;53.300;-6.260;2023-03-23T12:26:50;15.90;60.14
71942;DHT22;59997;53.300;-6.260;2023-03-23T12:35:37;16.04;60.30
71942;DHT22;59997;53.300;-6.260;2023-03-23T12:40:42;14.62;62.10
71942;DHT22;59997;53.300;-6.260;2023-03-23T12:45:50;14.61;62.43
71942;DHT22;59997;53.300;-6.260;2023-03-23T12:48:22;14.57;63.38
71942;DHT22;59997;53.300;-6.260;2023-03-23T12:59:26;14.14;63.09
71942;DHT22;59997;53.300;-6.260;2023-03-23T13:01:48;13.99;64.34
71942;DHT22;59997;53.300;-6.260;2023-03-23T13:04:21;14.57;62.74
71942;DHT22;59997;53.300;-6.260;2023-03-23T13:06:48;15.40;63.09
71942;DHT22;59997;53.300;-6.260;2023-03-23T13:12:14;15.48;61.59
71942;DHT22;59997;53.300;-6.260;2023-03-23T13:28:23;15.21;60.34
71942;DHT22;59997;53.300;-6.260;2023-03-23T13:31:10;14.58;59.30
71942;DHT22;59997;53.300;-6.260;2023-03-23T13:33:37;14.44;59.78
71942;DHT22;59997;53.300;-6.260;2023-03-23T13:36:11;14.48;62.12
71942;DHT22;59997;53.300;-6.260;2023-03-23T13:38:38;14.08;61.08
71942;DHT22;59997;53.300;-6.260;2023-03-23T13:41:12;14.10;64.30
71942;DHT22;59997;53.300;-6.260;2023-03-23T13:43:41;14.40;63.19
71942;DHT22;59997;53.300;-6.260;2023-03-23T13:48:50;13.98;63.09
71942;DHT22;59997;53.300;-6.260;2023-03-23T13:51:36;14.55;61.70
71942;DHT22;59997;53.300;-6.260;2023-03-23T13:54:29;14.42;60.34
71942;DHT22;59997;53.300;-6.260;2023-03-23T13:56:59;14.33;61.67
71942;DHT22;59997;53.300;-6.260;2023-03-23T14:01:52;14.76;59.59
71942;DHT22;59997;53.300;-6.260;2023-03-23T14:04:19;14.92;60.08
71942;DHT22;59997;53.300;-6.260;2023-03-23T14:06:48;15.17;58.72
71942;DHT22;59997;53.300;-6.260;2023-03-23T14:09:36;14.78;58.38
71942;DHT22;59997;53.300;-6.260;2023-03-23T14:12:20;14.82;58.47
71942;DHT22;59997;53.300;-6.260;2023-03-23T14:14:54;15.03;57.39
71942;DHT22;59997;53.300;-6.260;2023-03-23T14:17:25;15.03;56.19
71942;DHT22;59997;53.300;-6.260;2023-03-23T14:19:56;14.85;57.57
71942;DHT22;59997;53.300;-6.260;2023-03-23T14:22:33;14.90;57.50
71942;DHT22;59997;53.300;-6.260;2023-03-23T14:25:11;14.57;56.82
71942;DHT22;59997;53.300;-6.260;2023-03-23T14:27:38;14.40;57.44
71942;DHT22;59997;53.300;-6.260;2023-03-23T14:30:09;14.47;59.65
71942;DHT22;59997;53.300;-6.260;2023-03-23T14:32:37;14.54;58.58
71942;DHT22;59997;53.300;-6.260;2023-03-23T14:35:31;14.49;60.67
71942;DHT22;59997;53.300;-6.260;2023-03-23T14:37:57;14.49;60.00
71942;DHT22;59997;53.300;-6.260;2023-03-23T14:40:26;14.31;59.82
71942;DHT22;59997;53.300;-6.260;2023-03-23T14:42:52;13.89;59.86
71942;DHT22;59997;53.300;-6.260;2023-03-23T14:45:20;13.83;61.07
71942;DHT22;59997;53.300;-6.260;2023-03-23T14:48:06;13.75;62.90
71942;DHT22;59997;53.300;-6.260;2023-03-23T14:50:41;13.87;62.16
71942;DHT22;59997;53.300;-6.260;2023-03-23T14:53:25;14.38;61.93
71942;DHT22;59997;53.300;-6.260;2023-03-23T14:55:53;14.89;59.99
71942;DHT22;59997;53.300;-6.260;2023-03-23T14:58:21;15.24;60.38
71942;DHT22;59997;53.300;-6.260;2023-03-23T15:01:09;15.20;58.51
71942;DHT22;59997;53.300;-6.260;2023-03-23T15:03:52;14.42;59.20
71942;DHT22;59997;53.300;-6.260;2023-03-23T15:06:20;14.26;59.62
71942;DHT22;59997;53.300;-6.260;2023-03-23T15:08:47;14.58;61.06
71942;DHT22;59997;53.300;-6.260;2023-03-23T15:13:48;15.26;55.31
71942;DHT22;59997;53.300;-6.260;2023-03-23T15:16:29;15.28;56.67
71942;DHT22;59997;53.300;-6.260;2023-03-23T15:19:04;15.08;55.96
71942;DHT22;59997;53.300;-6.260;2023-03-23T15:21:33;15.20;56.37
71942;DHT22;59997;53.300;-6.260;2023-03-23T15:24:17;15.11;55.33
71942;DHT22;59997;53.300;-6.260;2023-03-23T15:26:44;15.00;55.69
71942;DHT22;59997;53.300;-6.260;2023-03-23T15:29:19;14.97;56.62
71942;DHT22;59997;53.300;-6.260;2023-03-23T15:31:54;15.13;57.64
71942;DHT22;59997;53.300;-6.260;2023-03-23T15:34:34;15.03;57.06
71942;DHT22;59997;53.300;-6.260;2023-03-23T15:37:06;14.86;58.16
71942;DHT22;59997;53.300;-6.260;2023-03-23T15:39:40;14.64;58.12
71942;DHT22;59997;53.300;-6.260;2023-03-23T15:42:06;14.47;59.51
71942;DHT22;59997;53.300;-6.260;2023-03-23T15:44:55;14.17;59.93
71942;DHT22;59997;53.300;-6.260;2023-03-23T15:47:20;14.10;61.16
71942;DHT22;59997;53.300;-6.260;2023-03-23T15:49:57;13.83;58.96
71942;DHT22;59997;53.300;-6.260;2023-03-23T15:52:24;14.06;59.86
71942;DHT22;59997;53.300;-6.260;2023-03-23T15:54:50;14.45;58.38
71942;DHT22;59997;53.300;-6.260;2023-03-23T15:57:16;14.16;58.69
71942;DHT22;59997;53.300;-6.260;2023-03-23T15:59:41;13.99;59.84
71942;DHT22;59997;53.300;-6.260;2023-03-23T16:02:15;14.45;58.60
71942;DHT22;59997;53.300;-6.260;2023-03-23T16:04:42;14.67;59.73
71942;DHT22;59997;53.300;-6.260;2023-03-23T16:07:08;14.30;59.46
71942;DHT22;59997;53.300;-6.260;2023-03-23T16:09:38;14.28;59.31
71942;DHT22;59997;53.300;-6.260;2023-03-23T16:12:12;14.85;59.89
71942;DHT22;59997;53.300;-6.260;2023-03-23T16:14:39;14.97;57.29
71942;DHT22;59997;53.300;-6.260;2023-03-23T16:17:04;14.14;59.38
71942;DHT22;59997;53.300;-6.260;2023-03-23T16:19:30;13.27;61.68
71942;DHT22;59997;53.300;-6.260;2023-03-23T16:21:56;12.63;63.91
71942;DHT22;59997;53.300;-6.260;2023-03-23T16:24:22;12.28;64.86
71942;DHT22;59997;53.300;-6.260;2023-03-23T16:26:47;12.02;66.94
71942;DHT22;59997;53.300;-6.260;2023-03-23T16:29:15;11.82;67.85
71942;DHT22;59997;53.300;-6.260;2023-03-23T16:31:40;11.66;67.41
71942;DHT22;59997;53.300;-6.260;2023-03-23T16:34:06;11.66;68.10
71942;DHT22;59997;53.300;-6.260;2023-03-23T16:36:32;11.70;69.06
71942;DHT22;59997;53.300;-6.260;2023-03-23T16:38:58;11.73;68.12
71942;DHT22;59997;53.300;-6.260;2023-03-23T16:41:24;11.87;67.88
71942;DHT22;59997;53.300;-6.260;2023-03-23T16:43:49;12.51;66.44
71942;DHT22;59997;53.300;-6.260;2023-03-23T16:46:15;13.16;65.48
71942;DHT22;59997;53.300;-6.260;2023-03-23T16:48:40;13.20;64.06
71942;DHT22;59997;53.300;-6.260;2023-03-23T16:51:06;12.87;63.36
71942;DHT22;59997;53.300;-6.260;2023-03-23T16:53:32;12.65;64.85
71942;DHT22;59997;53.300;-6.260;2023-03-23T16:55:58;12.39;65.55
71942;DHT22;59997;53.300;-6.260;2023-03-23T16:58:23;12.16;67.43
71942;DHT22;59997;53.300;-6.260;2023-03-23T17:00:50;12.04;67.51
71942;DHT22;59997;53.300;-6.260;2023-03-23T17:03:20;12.05;68.75
71942;DHT22;59997;53.300;-6.260;2023-03-23T17:05:50;12.18;68.71
71942;DHT22;59997;53.300;-6.260;2023-03-23T17:08:17;12.16;67.56
71942;DHT22;59997;53.300;-6.260;2023-03-23T17:10:43;11.95;69.37
71942;DHT22;59997;53.300;-6.260;2023-03-23T17:13:10;11.95;68.90
71942;DHT22;59997;53.300;-6.260;2023-03-23T17:15:38;12.37;69.56
71942;DHT22;59997;53.300;-6.260;2023-03-23T17:18:04;12.75;67.48
71942;DHT22;59997;53.300;-6.260;2023-03-23T17:20:30;12.77;66.72
71942;DHT22;59997;53.300;-6.260;2023-03-23T17:22:55;12.41;67.90
71942;DHT22;59997;53.300;-6.260;2023-03-23T17:25:21;11.95;69.31